sensor_id;sensor_type;location;lat;lon;timestamp;pressure;altitude;pressure_sealevel;temperature;humidity
52625;BME280;38519;52.540;13.410;2023-04-09T00:01:22;101784.41;;;4.04;100.00
52625;BME280;38519;52.540;13.410;2023-04-09T00:03:47;101778.53;;;3.97;100.00
52625;BME280;38519;52.540;13.410;2023-04-09T00:06:12;101773.41;;;3.90;100.00
52625;BME280;38519;52.540;13.410;2023-04-09T00:08:37;101781.34;;;3.92;100.00
52625;BME280;38519;52.540;13.410;2023-04-09T00:11:02;101772.28;;;3.88;100.00
52625;BME280;38519;52.540;13.410;2023-04-09T00:13:28;101773.22;;;3.89;100.00
52625;BME280;38519;52.540;13.410;2023-04-09T00:15:53;101772.47;;;3.90;100.00
52625;BME280;38519;52.540;13.410;2023-04-09T00:18:18;101772.88;;;3.86;100.00
52625;BME280;38519;52.540;13.410;2023-04-09T00:20:43;101768.97;;;3.89;100.00
52625;BME280;38519;52.540;13.410;2023-04-09T00:23:09;101769.69;;;3.95;100.00
52625;BME280;38519;52.540;13.410;2023-04-09T00:25:34;101774.31;;;3.91;100.00
52625;BME280;38519;52.540;13.410;2023-04-09T00:27:59;101769.34;;;3.85;100.00
52625;BME280;38519;52.540;13.410;2023-04-09T00:30:26;101768.06;;;3.81;100.00
52625;BME280;38519;52.540;13.410;2023-04-09T00:32:52;101767.34;;;3.82;100.00
52625;BME280;38519;52.540;13.410;2023-04-09T00:35:17;101768.59;;;3.86;100.00
52625;BME280;38519;52.540;13.410;2023-04-09T00:37:42;101764.94;;;3.84;100.00
52625;BME280;38519;52.540;13.410;2023-04-09T00:40:08;101768.28;;;3.76;100.00
52625;BME280;38519;52.540;13.410;2023-04-09T00:42:34;101767.13;;;3.88;100.00
52625;BME280;38519;52.540;13.410;2023-04-09T00:44:59;101763.25;;;3.85;100.00
52625;BME280;38519;52.540;13.410;2023-04-09T00:47:25;101760.69;;;3.85;100.00
52625;BME280;38519;52.540;13.410;2023-04-09T00:49:52;101759.78;;;3.84;100.00
52625;BME280;38519;52.540;13.410;2023-04-09T00:52:17;101765.28;;;3.87;100.00
52625;BME280;38519;52.540;13.410;2023-04-09T00:54:43;101766.81;;;3.78;100.00
52625;BME280;38519;52.540;13.410;2023-04-09T00:57:09;101770.69;;;3.74;100.00
52625;BME280;38519;52.540;13.410;2023-04-09T00:59:36;101768.13;;;3.74;100.00
52625;BME280;38519;52.540;13.410;2023-04-09T01:02:02;101765.72;;;3.69;100.00
52625;BME280;38519;52.540;13.410;2023-04-09T01:04:27;101770.91;;;3.61;100.00
52625;BME280;38519;52.540;13.410;2023-04-09T01:06:58;101769.78;;;3.59;100.00
52625;BME280;38519;52.540;13.410;2023-04-09T01:09:29;101763.94;;;3.53;100.00
52625;BME280;38519;52.540;13.410;2023-04-09T01:14:39;101767.63;;;3.48;100.00
52625;BME280;38519;52.540;13.410;2023-04-09T01:17:09;101764.66;;;3.52;100.00
52625;BME280;38519;52.540;13.410;2023-04-09T01:22:09;101770.00;;;3.46;100.00
52625;BME280;38519;52.540;13.410;2023-04-09T01:27:06;101766.16;;;3.50;100.00
52625;BME280;38519;52.540;13.410;2023-04-09T01:29:38;101764.84;;;3.46;100.00
52625;BME280;38519;52.540;13.410;2023-04-09T01:32:06;101761.75;;;3.42;100.00
52625;BME280;38519;52.540;13.410;2023-04-09T01:34:31;101769.88;;;3.38;100.00
52625;BME280;38519;52.540;13.410;2023-04-09T01:36:58;101764.53;;;3.36;100.00
52625;BME280;38519;52.540;13.410;2023-04-09T01:39:25;101765.63;;;3.38;100.00
52625;BME280;38519;52.540;13.410;2023-04-09T01:41:51;101765.25;;;3.35;100.00
52625;BME280;38519;52.540;13.410;2023-04-09T01:44:17;101764.88;;;3.32;100.00
52625;BME280;38519;52.540;13.410;2023-04-09T01:46:44;101774.28;;;3.32;100.00
52625;BME280;38519;52.540;13.410;2023-04-09T01:49:10;101770.81;;;3.31;100.00
52625;BME280;38519;52.540;13.410;2023-04-09T01:51:36;101775.75;;;3.37;100.00
52625;BME280;38519;52.540;13.410;2023-04-09T01:54:02;101776.28;;;3.56;100.00
52625;BME280;38519;52.540;13.410;2023-04-09T01:56:38;101777.72;;;3.61;100.00
52625;BME280;38519;52.540;13.410;2023-04-09T01:59:03;101775.91;;;3.53;100.00
52625;BME280;38519;52.540;13.410;2023-04-09T02:01:32;101775.19;;;3.46;100.00
52625;BME280;38519;52.540;13.410;2023-04-09T02:03:59;101774.09;;;3.44;100.00
52625;BME280;38519;52.540;13.410;2023-04-09T02:08:57;101777.31;;;3.72;100.00
52625;BME280;38519;52.540;13.410;2023-04-09T02:11:24;101777.91;;;3.62;100.00
52625;BME280;38519;52.540;13.410;2023-04-09T02:13:50;101774.63;;;3.49;100.00
52625;BME280;38519;52.540;13.410;2023-04-09T02:16:18;101784.22;;;3.43;100.00
52625;BME280;38519;52.540;13.410;2023-04-09T02:18:44;101785.91;;;3.35;100.00
52625;BME280;38519;52.540;13.410;2023-04-09T02:21:09;101783.72;;;3.31;100.00
52625;BME280;38519;52.540;13.410;2023-04-09T02:23:37;101773.56;;;3.25;100.00
52625;BME280;38519;52.540;13.410;2023-04-09T02:26:03;101788.50;;;3.21;100.00
52625;BME280;38519;52.540;13.410;2023-04-09T02:28:28;101778.75;;;3.18;100.00
52625;BME280;38519;52.540;13.410;2023-04-09T02:30:53;101785.00;;;3.20;100.00
52625;BME280;38519;52.540;13.410;2023-04-09T02:33:18;101777.28;;;3.13;100.00
52625;BME280;38519;52.540;13.410;2023-04-09T02:35:43;101772.84;;;3.12;100.00
52625;BME280;38519;52.540;13.410;2023-04-09T02:38:09;101780.78;;;3.06;100.00
52625;BME280;38519;52.540;13.410;2023-04-09T02:40:41;101779.84;;;3.06;100.00
52625;BME280;38519;52.540;13.410;2023-04-09T02:43:07;101776.56;;;3.07;100.00
52625;BME280;38519;52.540;13.410;2023-04-09T02:45:32;101783.19;;;3.12;100.00
52625;BME280;38519;52.540;13.410;2023-04-09T02:47:58;101774.72;;;3.13;100.00
52625;BME280;38519;52.540;13.410;2023-04-09T02:50:24;101775.06;;;3.09;100.00
52625;BME280;38519;52.540;13.410;2023-04-09T02:52:49;101781.53;;;3.05;100.00
52625;BME280;38519;52.540;13.410;2023-04-09T02:55:15;101782.06;;;3.39;100.00
52625;BME280;38519;52.540;13.410;2023-04-09T02:57:40;101781.09;;;3.38;100.00
52625;BME280;38519;52.540;13.410;2023-04-09T03:00:06;101786.00;;;3.65;100.00
52625;BME280;38519;52.540;13.410;2023-04-09T03:02:32;101776.41;;;3.79;100.00
52625;BME280;38519;52.540;13.410;2023-04-09T03:04:57;101785.25;;;3.81;100.00
52625;BME280;38519;52.540;13.410;2023-04-09T03:07:22;101783.03;;;3.77;100.00
52625;BME280;38519;52.540;13.410;2023-04-09T03:09:49;101776.63;;;3.66;100.00
52625;BME280;38519;52.540;13.410;2023-04-09T03:12:15;101774.09;;;3.52;100.00
52625;BME280;38519;52.540;13.410;2023-04-09T03:14:40;101774.13;;;3.37;100.00
52625;BME280;38519;52.540;13.410;2023-04-09T03:17:07;101776.53;;;3.21;100.00
52625;BME280;38519;52.540;13.410;2023-04-09T03:19:32;101782.81;;;3.09;100.00
52625;BME280;38519;52.540;13.410;2023-04-09T03:21:57;101776.94;;;2.96;100.00
52625;BME280;38519;52.540;13.410;2023-04-09T03:24:22;101773.78;;;2.84;100.00
52625;BME280;38519;52.540;13.410;2023-04-09T03:26:48;101771.19;;;2.69;100.00
52625;BME280;38519;52.540;13.410;2023-04-09T03:29:13;101766.19;;;2.57;100.00
52625;BME280;38519;52.540;13.410;2023-04-09T03:31:40;101771.16;;;2.41;100.00
52625;BME280;38519;52.540;13.410;2023-04-09T03:34:05;101761.38;;;2.24;100.00
52625;BME280;38519;52.540;13.410;2023-04-09T03:36:30;101765.00;;;2.04;100.00
52625;BME280;38519;52.540;13.410;2023-04-09T03:38:56;101764.06;;;1.96;100.00
52625;BME280;38519;52.540;13.410;2023-04-09T03:41:22;101759.03;;;1.84;100.00
52625;BME280;38519;52.540;13.410;2023-04-09T03:43:47;101759.38;;;1.79;100.00
52625;BME280;38519;52.540;13.410;2023-04-09T03:46:12;101761.03;;;1.79;100.00
52625;BME280;38519;52.540;13.410;2023-04-09T03:48:38;101759.16;;;1.71;100.00
52625;BME280;38519;52.540;13.410;2023-04-09T03:51:03;101760.66;;;1.76;100.00
52625;BME280;38519;52.540;13.410;2023-04-09T03:53:28;101760.00;;;1.91;100.00
52625;BME280;38519;52.540;13.410;2023-04-09T03:55:53;101768.44;;;1.90;100.00
52625;BME280;38519;52.540;13.410;2023-04-09T03:58:19;101760.72;;;1.90;100.00
52625;BME280;38519;52.540;13.410;2023-04-09T04:00:44;101764.38;;;1.85;100.00
52625;BME280;38519;52.540;13.410;2023-04-09T04:03:10;101764.72;;;1.81;100.00
52625;BME280;38519;52.540;13.410;2023-04-09T04:05:35;101764.00;;;1.82;100.00
52625;BME280;38519;52.540;13.410;2023-04-09T04:08:00;101762.00;;;1.87;100.00
52625;BME280;38519;52.540;13.410;2023-04-09T04:10:26;101759.81;;;1.90;100.00
52625;BME280;38519;52.540;13.410;2023-04-09T04:12:51;101762.06;;;2.01;100.00
52625;BME280;38519;52.540;13.410;2023-04-09T04:15:16;101760.94;;;2.06;100.00
52625;BME280;38519;52.540;13.410;2023-04-09T04:17:43;101764.28;;;2.12;100.00
52625;BME280;38519;52.540;13.410;2023-04-09T04:20:08;101765.19;;;2.06;100.00
52625;BME280;38519;52.540;13.410;2023-04-09T04:22:34;101762.81;;;2.14;100.00
52625;BME280;38519;52.540;13.410;2023-04-09T04:24:59;101764.88;;;2.24;100.00
52625;BME280;38519;52.540;13.410;2023-04-09T04:27:25;101768.34;;;2.25;100.00
52625;BME280;38519;52.540;13.410;2023-04-09T04:29:50;101771.31;;;2.28;100.00
52625;BME280;38519;52.540;13.410;2023-04-09T04:32:15;101775.03;;;2.30;100.00
52625;BME280;38519;52.540;13.410;2023-04-09T04:34:40;101773.16;;;2.29;100.00
52625;BME280;38519;52.540;13.410;2023-04-09T04:37:05;101779.03;;;2.28;100.00
52625;BME280;38519;52.540;13.410;2023-04-09T04:39:31;101779.03;;;2.28;100.00
52625;BME280;38519;52.540;13.410;2023-04-09T04:41:56;101783.50;;;2.43;100.00
52625;BME280;38519;52.540;13.410;2023-04-09T04:44:21;101785.34;;;2.44;100.00
52625;BME280;38519;52.540;13.410;2023-04-09T04:46:46;101779.44;;;2.45;100.00
52625;BME280;38519;52.540;13.410;2023-04-09T04:49:11;101776.72;;;2.51;100.00
52625;BME280;38519;52.540;13.410;2023-04-09T04:51:37;101780.78;;;2.63;100.00
52625;BME280;38519;52.540;13.410;2023-04-09T04:54:02;101782.44;;;2.70;100.00
52625;BME280;38519;52.540;13.410;2023-04-09T04:56:27;101783.53;;;2.79;100.00
52625;BME280;38519;52.540;13.410;2023-04-09T04:58:52;101783.34;;;2.78;100.00
52625;BME280;38519;52.540;13.410;2023-04-09T05:01:18;101779.47;;;2.74;100.00
52625;BME280;38519;52.540;13.410;2023-04-09T05:03:43;101783.19;;;2.76;100.00
52625;BME280;38519;52.540;13.410;2023-04-09T05:06:08;101785.03;;;2.99;100.00
52625;BME280;38519;52.540;13.410;2023-04-09T05:08:33;101785.41;;;3.02;100.00
52625;BME280;38519;52.540;13.410;2023-04-09T05:10:59;101788.69;;;3.08;100.00
52625;BME280;38519;52.540;13.410;2023-04-09T05:13:24;101792.03;;;3.00;100.00
52625;BME280;38519;52.540;13.410;2023-04-09T05:15:49;101791.66;;;3.18;100.00
52625;BME280;38519;52.540;13.410;2023-04-09T05:18:15;101790.38;;;3.29;100.00
52625;BME280;38519;52.540;13.410;2023-04-09T05:20:40;101792.56;;;3.33;100.00
52625;BME280;38519;52.540;13.410;2023-04-09T05:23:06;101791.25;;;3.37;100.00
52625;BME280;38519;52.540;13.410;2023-04-09T05:25:34;101787.72;;;3.43;100.00
52625;BME280;38519;52.540;13.410;2023-04-09T05:27:59;101791.41;;;3.53;100.00
52625;BME280;38519;52.540;13.410;2023-04-09T05:30:24;101791.75;;;3.56;100.00
52625;BME280;38519;52.540;13.410;2023-04-09T05:32:50;101796.22;;;3.42;100.00
52625;BME280;38519;52.540;13.410;2023-04-09T05:35:15;101792.34;;;3.53;100.00
52625;BME280;38519;52.540;13.410;2023-04-09T05:37:41;101796.72;;;3.69;100.00
52625;BME280;38519;52.540;13.410;2023-04-09T05:40:06;101804.09;;;3.73;100.00
52625;BME280;38519;52.540;13.410;2023-04-09T05:42:31;101794.84;;;3.75;100.00
52625;BME280;38519;52.540;13.410;2023-04-09T05:44:57;101809.63;;;3.69;100.00
52625;BME280;38519;52.540;13.410;2023-04-09T05:47:22;101801.88;;;3.76;100.00
52625;BME280;38519;52.540;13.410;2023-04-09T05:49:47;101804.78;;;3.86;100.00
52625;BME280;38519;52.540;13.410;2023-04-09T05:52:13;101804.41;;;3.90;100.00
52625;BME280;38519;52.540;13.410;2023-04-09T05:54:39;101808.03;;;3.99;100.00
52625;BME280;38519;52.540;13.410;2023-04-09T05:57:05;101810.78;;;4.08;100.00
52625;BME280;38519;52.540;13.410;2023-04-09T05:59:30;101812.78;;;4.11;100.00
52625;BME280;38519;52.540;13.410;2023-04-09T06:01:55;101807.31;;;4.00;100.00
52625;BME280;38519;52.540;13.410;2023-04-09T06:04:20;101804.53;;;3.99;100.00
52625;BME280;38519;52.540;13.410;2023-04-09T06:06:46;101809.16;;;4.01;100.00
52625;BME280;38519;52.540;13.410;2023-04-09T06:09:12;101801.19;;;4.07;100.00
52625;BME280;38519;52.540;13.410;2023-04-09T06:11:37;101805.28;;;3.98;100.00
52625;BME280;38519;52.540;13.410;2023-04-09T06:14:02;101804.72;;;4.08;100.00
52625;BME280;38519;52.540;13.410;2023-04-09T06:16:28;101800.75;;;4.18;100.00
52625;BME280;38519;52.540;13.410;2023-04-09T06:18:53;101799.06;;;4.26;100.00
52625;BME280;38519;52.540;13.410;2023-04-09T06:21:20;101795.34;;;4.31;100.00
52625;BME280;38519;52.540;13.410;2023-04-09T06:23:46;101803.25;;;4.40;100.00
52625;BME280;38519;52.540;13.410;2023-04-09T06:26:11;101805.03;;;4.48;100.00
52625;BME280;38519;52.540;13.410;2023-04-09T06:28:36;101803.91;;;4.53;100.00
52625;BME280;38519;52.540;13.410;2023-04-09T06:31:02;101805.22;;;4.50;100.00
52625;BME280;38519;52.540;13.410;2023-04-09T06:33:27;101808.97;;;4.68;100.00
52625;BME280;38519;52.540;13.410;2023-04-09T06:35:52;101812.47;;;4.68;100.00
52625;BME280;38519;52.540;13.410;2023-04-09T06:38:17;101811.19;;;4.42;100.00
52625;BME280;38519;52.540;13.410;2023-04-09T06:40:43;101810.66;;;4.67;100.00
52625;BME280;38519;52.540;13.410;2023-04-09T06:43:08;101815.66;;;4.89;100.00
52625;BME280;38519;52.540;13.410;2023-04-09T06:45:34;101812.38;;;4.52;100.00
52625;BME280;38519;52.540;13.410;2023-04-09T06:47:59;101816.47;;;4.81;100.00
52625;BME280;38519;52.540;13.410;2023-04-09T06:50:25;101815.09;;;4.91;100.00
52625;BME280;38519;52.540;13.410;2023-04-09T06:52:50;101814.13;;;4.98;100.00
52625;BME280;38519;52.540;13.410;2023-04-09T06:55:16;101820.34;;;5.07;100.00
52625;BME280;38519;52.540;13.410;2023-04-09T06:57:41;101829.75;;;5.07;100.00
52625;BME280;38519;52.540;13.410;2023-04-09T07:00:06;101826.94;;;5.13;100.00
52625;BME280;38519;52.540;13.410;2023-04-09T07:02:32;101828.25;;;4.86;100.00
52625;BME280;38519;52.540;13.410;2023-04-09T07:04:58;101825.97;;;4.96;100.00
52625;BME280;38519;52.540;13.410;2023-04-09T07:07:24;101836.41;;;5.12;100.00
52625;BME280;38519;52.540;13.410;2023-04-09T07:09:49;101835.38;;;4.96;100.00
52625;BME280;38519;52.540;13.410;2023-04-09T07:12:25;101833.41;;;4.93;100.00
52625;BME280;38519;52.540;13.410;2023-04-09T07:14:50;101837.94;;;5.03;100.00
52625;BME280;38519;52.540;13.410;2023-04-09T07:17:15;101843.69;;;5.00;100.00
52625;BME280;38519;52.540;13.410;2023-04-09T07:19:40;101841.78;;;5.06;100.00
52625;BME280;38519;52.540;13.410;2023-04-09T07:22:05;101838.47;;;5.07;100.00
52625;BME280;38519;52.540;13.410;2023-04-09T07:24:32;101836.72;;;4.92;100.00
52625;BME280;38519;52.540;13.410;2023-04-09T07:27:02;101831.72;;;4.70;100.00
52625;BME280;38519;52.540;13.410;2023-04-09T07:29:27;101831.81;;;4.79;100.00
52625;BME280;38519;52.540;13.410;2023-04-09T07:31:52;101836.44;;;4.82;100.00
52625;BME280;38519;52.540;13.410;2023-04-09T07:34:17;101840.28;;;4.85;100.00
52625;BME280;38519;52.540;13.410;2023-04-09T07:36:42;101843.22;;;5.11;100.00
52625;BME280;38519;52.540;13.410;2023-04-09T07:39:08;101838.03;;;5.11;100.00
52625;BME280;38519;52.540;13.410;2023-04-09T07:41:33;101834.75;;;5.05;100.00
52625;BME280;38519;52.540;13.410;2023-04-09T07:43:59;101837.34;;;5.05;100.00
52625;BME280;38519;52.540;13.410;2023-04-09T07:46:27;101837.81;;;5.17;100.00
52625;BME280;38519;52.540;13.410;2023-04-09T07:48:52;101837.13;;;5.11;100.00
52625;BME280;38519;52.540;13.410;2023-04-09T07:51:17;101842.13;;;5.09;100.00
52625;BME280;38519;52.540;13.410;2023-04-09T07:53:44;101838.69;;;5.02;100.00
52625;BME280;38519;52.540;13.410;2023-04-09T07:56:09;101840.41;;;5.17;100.00
52625;BME280;38519;52.540;13.410;2023-04-09T07:58:35;101845.88;;;5.27;100.00
52625;BME280;38519;52.540;13.410;2023-04-09T08:01:01;101841.16;;;5.39;100.00
52625;BME280;38519;52.540;13.410;2023-04-09T08:03:27;101852.84;;;5.52;100.00
52625;BME280;38519;52.540;13.410;2023-04-09T08:05:52;101851.28;;;5.61;100.00
52625;BME280;38519;52.540;13.410;2023-04-09T08:08:17;101854.91;;;5.70;100.00
52625;BME280;38519;52.540;13.410;2023-04-09T08:10:43;101856.91;;;5.73;100.00
52625;BME280;38519;52.540;13.410;2023-04-09T08:13:09;101861.59;;;5.84;100.00
52625;BME280;38519;52.540;13.410;2023-04-09T08:15:34;101865.56;;;5.96;100.00
52625;BME280;38519;52.540;13.410;2023-04-09T08:18:00;101864.41;;;6.17;100.00
52625;BME280;38519;52.540;13.410;2023-04-09T08:20:27;101867.50;;;6.22;100.00
52625;BME280;38519;52.540;13.410;2023-04-09T08:22:53;101864.72;;;6.36;100.00
52625;BME280;38519;52.540;13.410;2023-04-09T08:25:18;101860.97;;;6.26;100.00
52625;BME280;38519;52.540;13.410;2023-04-09T08:27:43;101873.34;;;6.28;100.00
52625;BME280;38519;52.540;13.410;2023-04-09T08:30:09;101871.28;;;6.01;100.00
52625;BME280;38519;52.540;13.410;2023-04-09T08:32:35;101870.53;;;5.79;100.00
52625;BME280;38519;52.540;13.410;2023-04-09T08:35:00;101865.19;;;5.93;100.00
52625;BME280;38519;52.540;13.410;2023-04-09T08:37:25;101869.34;;;6.07;100.00
52625;BME280;38519;52.540;13.410;2023-04-09T08:39:52;101864.22;;;6.16;100.00
52625;BME280;38519;52.540;13.410;2023-04-09T08:42:17;101869.00;;;6.36;100.00
52625;BME280;38519;52.540;13.410;2023-04-09T08:44:43;101869.69;;;6.42;100.00
52625;BME280;38519;52.540;13.410;2023-04-09T08:47:08;101871.38;;;6.66;100.00
52625;BME280;38519;52.540;13.410;2023-04-09T08:49:35;101865.56;;;6.28;100.00
52625;BME280;38519;52.540;13.410;2023-04-09T08:52:00;101863.38;;;6.24;100.00
52625;BME280;38519;52.540;13.410;2023-04-09T08:54:26;101864.56;;;6.35;100.00
52625;BME280;38519;52.540;13.410;2023-04-09T08:56:51;101863.31;;;6.15;100.00
52625;BME280;38519;52.540;13.410;2023-04-09T08:59:16;101861.81;;;6.01;100.00
52625;BME280;38519;52.540;13.410;2023-04-09T09:01:44;101861.47;;;6.14;100.00
52625;BME280;38519;52.540;13.410;2023-04-09T09:04:11;101857.47;;;6.25;100.00
52625;BME280;38519;52.540;13.410;2023-04-09T09:06:38;101859.69;;;6.38;100.00
52625;BME280;38519;52.540;13.410;2023-04-09T09:09:04;101856.78;;;6.35;100.00
52625;BME280;38519;52.540;13.410;2023-04-09T09:11:31;101850.84;;;6.36;100.00
52625;BME280;38519;52.540;13.410;2023-04-09T09:13:57;101857.84;;;6.53;100.00
52625;BME280;38519;52.540;13.410;2023-04-09T09:16:22;101862.56;;;6.73;100.00
52625;BME280;38519;52.540;13.410;2023-04-09T09:18:48;101863.41;;;6.81;100.00
52625;BME280;38519;52.540;13.410;2023-04-09T09:21:14;101866.16;;;7.16;100.00
52625;BME280;38519;52.540;13.410;2023-04-09T09:23:39;101867.34;;;7.02;100.00
52625;BME280;38519;52.540;13.410;2023-04-09T09:26:13;101862.47;;;7.05;100.00
52625;BME280;38519;52.540;13.410;2023-04-09T09:28:38;101862.84;;;7.25;100.00
52625;BME280;38519;52.540;13.410;2023-04-09T09:31:07;101859.19;;;7.23;100.00
52625;BME280;38519;52.540;13.410;2023-04-09T09:33:32;101865.81;;;7.71;100.00
52625;BME280;38519;52.540;13.410;2023-04-09T09:35:58;101863.09;;;7.95;100.00
52625;BME280;38519;52.540;13.410;2023-04-09T09:38:23;101864.63;;;7.93;100.00
52625;BME280;38519;52.540;13.410;2023-04-09T09:40:48;101865.84;;;8.06;100.00
52625;BME280;38519;52.540;13.410;2023-04-09T09:43:13;101866.41;;;7.77;100.00
52625;BME280;38519;52.540;13.410;2023-04-09T09:45:39;101861.28;;;7.52;100.00
52625;BME280;38519;52.540;13.410;2023-04-09T09:48:05;101857.41;;;7.40;100.00
52625;BME280;38519;52.540;13.410;2023-04-09T09:50:30;101857.47;;;7.15;100.00
52625;BME280;38519;52.540;13.410;2023-04-09T09:53:03;101852.91;;;7.55;100.00
52625;BME280;38519;52.540;13.410;2023-04-09T09:55:30;101857.91;;;7.95;100.00
52625;BME280;38519;52.540;13.410;2023-04-09T09:57:56;101856.66;;;7.92;100.00
52625;BME280;38519;52.540;13.410;2023-04-09T10:00:22;101843.09;;;8.20;100.00
52625;BME280;38519;52.540;13.410;2023-04-09T10:02:55;101847.50;;;8.04;100.00
52625;BME280;38519;52.540;13.410;2023-04-09T10:05:23;101845.22;;;8.16;100.00
52625;BME280;38519;52.540;13.410;2023-04-09T10:07:51;101845.19;;;7.98;100.00
52625;BME280;38519;52.540;13.410;2023-04-09T10:10:17;101841.66;;;7.89;100.00
52625;BME280;38519;52.540;13.410;2023-04-09T10:12:43;101839.91;;;7.63;100.00
52625;BME280;38519;52.540;13.410;2023-04-09T10:15:09;101836.94;;;7.43;100.00
52625;BME280;38519;52.540;13.410;2023-04-09T10:17:34;101839.53;;;7.34;100.00
52625;BME280;38519;52.540;13.410;2023-04-09T10:20:04;101841.25;;;7.42;100.00
52625;BME280;38519;52.540;13.410;2023-04-09T10:22:32;101837.97;;;7.70;100.00
52625;BME280;38519;52.540;13.410;2023-04-09T10:24:58;101832.06;;;8.23;100.00
52625;BME280;38519;52.540;13.410;2023-04-09T10:27:24;101838.97;;;8.57;100.00
52625;BME280;38519;52.540;13.410;2023-04-09T10:29:51;101840.75;;;8.93;100.00
52625;BME280;38519;52.540;13.410;2023-04-09T10:32:20;101845.38;;;8.70;100.00
52625;BME280;38519;52.540;13.410;2023-04-09T10:34:47;101851.16;;;8.93;100.00
52625;BME280;38519;52.540;13.410;2023-04-09T10:37:19;101852.16;;;9.22;100.00
52625;BME280;38519;52.540;13.410;2023-04-09T10:39:45;101851.97;;;9.29;100.00
52625;BME280;38519;52.540;13.410;2023-04-09T10:42:22;101852.25;;;8.87;100.00
52625;BME280;38519;52.540;13.410;2023-04-09T10:47:35;101845.72;;;8.55;100.00
52625;BME280;38519;52.540;13.410;2023-04-09T10:52:39;101844.97;;;8.48;100.00
52625;BME280;38519;52.540;13.410;2023-04-09T10:55:04;101842.34;;;8.56;100.00
52625;BME280;38519;52.540;13.410;2023-04-09T10:57:30;101842.78;;;8.61;100.00
52625;BME280;38519;52.540;13.410;2023-04-09T10:59:56;101835.59;;;8.32;100.00
52625;BME280;38519;52.540;13.410;2023-04-09T11:05:18;101834.66;;;8.23;100.00
52625;BME280;38519;52.540;13.410;2023-04-09T11:07:44;101833.47;;;8.28;100.00
52625;BME280;38519;52.540;13.410;2023-04-09T11:10:11;101837.88;;;8.12;100.00
52625;BME280;38519;52.540;13.410;2023-04-09T11:12:36;101831.28;;;7.98;100.00
52625;BME280;38519;52.540;13.410;2023-04-09T11:15:02;101841.09;;;8.09;100.00
52625;BME280;38519;52.540;13.410;2023-04-09T11:17:27;101830.06;;;8.29;100.00
52625;BME280;38519;52.540;13.410;2023-04-09T11:19:53;101836.53;;;8.59;100.00
52625;BME280;38519;52.540;13.410;2023-04-09T11:22:19;101839.44;;;8.53;100.00
52625;BME280;38519;52.540;13.410;2023-04-09T11:24:45;101834.66;;;8.23;100.00
52625;BME280;38519;52.540;13.410;2023-04-09T11:27:14;101836.69;;;8.61;100.00
52625;BME280;38519;52.540;13.410;2023-04-09T11:29:43;101836.03;;;8.81;100.00
52625;BME280;38519;52.540;13.410;2023-04-09T11:32:08;101840.94;;;8.86;100.00
52625;BME280;38519;52.540;13.410;2023-04-09T11:34:33;101837.50;;;9.05;100.00
52625;BME280;38519;52.540;13.410;2023-04-09T11:36:59;101828.91;;;9.06;100.00
52625;BME280;38519;52.540;13.410;2023-04-09T11:39:26;101831.13;;;9.29;100.00
52625;BME280;38519;52.540;13.410;2023-04-09T11:41:51;101820.06;;;9.59;100.00
52625;BME280;38519;52.540;13.410;2023-04-09T11:44:17;101818.81;;;9.92;100.00
52625;BME280;38519;52.540;13.410;2023-04-09T11:46:44;101808.00;;;9.98;100.00
52625;BME280;38519;52.540;13.410;2023-04-09T11:49:10;101814.44;;;9.82;100.00
52625;BME280;38519;52.540;13.410;2023-04-09T11:51:37;101813.28;;;9.42;100.00
52625;BME280;38519;52.540;13.410;2023-04-09T11:54:06;101815.53;;;9.20;100.00
52625;BME280;38519;52.540;13.410;2023-04-09T11:56:31;101811.13;;;9.10;100.00
52625;BME280;38519;52.540;13.410;2023-04-09T11:58:57;101808.50;;;9.10;100.00
52625;BME280;38519;52.540;13.410;2023-04-09T12:01:22;101812.78;;;9.10;100.00
52625;BME280;38519;52.540;13.410;2023-04-09T12:03:54;101814.63;;;9.20;100.00
52625;BME280;38519;52.540;13.410;2023-04-09T12:06:20;101809.50;;;9.58;100.00
52625;BME280;38519;52.540;13.410;2023-04-09T12:08:55;101802.50;;;9.95;100.00
52625;BME280;38519;52.540;13.410;2023-04-09T12:11:25;101808.78;;;9.78;100.00
52625;BME280;38519;52.540;13.410;2023-04-09T12:13:57;101807.63;;;9.65;100.00
52625;BME280;38519;52.540;13.410;2023-04-09T12:16:22;101806.94;;;9.77;100.00
52625;BME280;38519;52.540;13.410;2023-04-09T12:18:48;101801.75;;;10.15;100.00
52625;BME280;38519;52.540;13.410;2023-04-09T12:21:14;101800.75;;;10.04;100.00
52625;BME280;38519;52.540;13.410;2023-04-09T12:23:39;101801.66;;;10.24;100.00
52625;BME280;38519;52.540;13.410;2023-04-09T12:26:05;101797.50;;;10.45;100.00
52625;BME280;38519;52.540;13.410;2023-04-09T12:28:30;101805.03;;;10.61;100.00
52625;BME280;38519;52.540;13.410;2023-04-09T12:30:55;101801.78;;;10.53;100.00
52625;BME280;38519;52.540;13.410;2023-04-09T12:33:23;101803.13;;;10.30;100.00
52625;BME280;38519;52.540;13.410;2023-04-09T12:35:48;101793.38;;;10.47;100.00
52625;BME280;38519;52.540;13.410;2023-04-09T12:38:13;101793.41;;;10.57;100.00
52625;BME280;38519;52.540;13.410;2023-04-09T12:40:39;101791.09;;;10.70;100.00
52625;BME280;38519;52.540;13.410;2023-04-09T12:43:04;101787.53;;;10.89;100.00
52625;BME280;38519;52.540;13.410;2023-04-09T12:45:30;101782.72;;;10.93;100.00
52625;BME280;38519;52.540;13.410;2023-04-09T12:47:55;101784.91;;;11.49;100.00
52625;BME280;38519;52.540;13.410;2023-04-09T12:50:21;101778.91;;;12.12;100.00
52625;BME280;38519;52.540;13.410;2023-04-09T12:52:46;101785.94;;;12.98;100.00